Portada
METAR-TAF:

METAR-TAF

Aeroports :

Illa Christmas, Austràlia

latitud: 10-26S, longitud: 105-41E, altitud: 279 m

Observació

L'informe es va fer fa 49 minuts, a les 04:00 UTC
Vent 14 kt del Est/Sud-Est
Temperatura 27°C
Humitat 74%
Pressió 1014 hPa
Visibilitat 10 km o més
Cel ennuvolat a una alçada de 1800 ft
Cel ennuvolat a una alçada de 2300 ft

METAR: YPXM 220400Z AUTO 11014KT 9999 // BKN018 BKN023 27/22 Q1014

Hora: 11:49 (04:49 UTC)

Pronòstic

L'informe es va fer fa 6 hores i 28 minuts, a les 22:21 UTC
Pronòstic vàlid del 21 a les 22 UTC al 22 a les 24 UTC
Vent 12 kt del Est/Sud-Est
Visibilitat 10 km o més
Cel ennuvolat a una alçada de 1700 ft

TAF: YPXM 212221Z 2122/2224 11012KT 9999 BKN017

Observacions i pronòstics meteorològics de més de 4000 aeroports (METAR i TAF).

Les estacions disponibles són els punts grocs i vermells al mapa.

Posi el ratolí al punt desitjat per veure el nom de l'estació.

Feu clic per veure les observacions i els pronòstics meteorològics.

Per canviar el mapa: feu clic els botons verds amb una creu de color negre per apropar; al botó verd amb un guió per allunyar la imatge; o en les fletxes verdes per a mapes adjacents.


METAR-TAF: